Unbenanntes Dokument
Flugplatz Bielefeld Platzwetter

 

Aktuelles Platzwetter am Flugplatz Bielefeld EDLI

25.09.17 ,02:31 Uhr

METAR EDLI 250230Z 08005KT 9999 12/12 Q1023

 

Windwerte

 

Wolkenuntergrenzen

Wind aktuell:110 ° mit 2 kt
Wind 10 min Extrem:
50 ° bis 130 ° mit 2 kt bis 8 kt
Seitenwindkomponente: -1.3 kt
Wolkengrenze 1:
Wolkengrenze 2:
Wolkengrenze 3:

Webcam

Temperatur

       

Sichtweite:

10.000 Meter

12.7 °C
Taupunkt: 12.7 °C
Luftfeuchtigkeit: 99 %

Luftdruck:

QNH: 1023 hPa (30.21 in Hg)
QFE: 1006 hPa (29.71 in Hg)

Diese Daten werden automatisch ermittelt bzw. übertragen und sind nicht geprüft. Für die Richtigkeit wird daher keine Gewähr übernommen. Sie ersetzen im übrigen nicht die Flugwetterberatung. Alle Zeitangaben beziehen sich auf UTC. Die Seite wird einmal die Minute aktualisiert! Sollten Sie ein ältere Seite haben, so drücken Sie bitte auf den Reload Button Ihres Browsers!